sensor_id;sensor_type;location;lat;lon;timestamp;pressure;altitude;pressure_sealevel;temperature;humidity
5574;BME280;2563;52.242;7.956;2023-04-27T00:00:05;101288.63;;;3.54;100.00
5574;BME280;2563;52.242;7.956;2023-04-27T00:02:35;101290.25;;;3.49;100.00
5574;BME280;2563;52.242;7.956;2023-04-27T00:05:01;101282.59;;;3.48;100.00
5574;BME280;2563;52.242;7.956;2023-04-27T00:07:27;101273.16;;;3.42;100.00
5574;BME280;2563;52.242;7.956;2023-04-27T00:09:52;101272.19;;;3.34;100.00
5574;BME280;2563;52.242;7.956;2023-04-27T00:12:18;101270.41;;;3.30;100.00
5574;BME280;2563;52.242;7.956;2023-04-27T00:14:43;101266.16;;;3.29;100.00
5574;BME280;2563;52.242;7.956;2023-04-27T00:17:09;101259.25;;;3.23;100.00
5574;BME280;2563;52.242;7.956;2023-04-27T00:19:34;101243.09;;;3.19;100.00
5574;BME280;2563;52.242;7.956;2023-04-27T00:21:59;101232.81;;;3.13;100.00
5574;BME280;2563;52.242;7.956;2023-04-27T00:24:25;101229.41;;;3.13;100.00
5574;BME280;2563;52.242;7.956;2023-04-27T00:26:50;101227.63;;;3.09;100.00
5574;BME280;2563;52.242;7.956;2023-04-27T00:29:15;101222.47;;;3.03;100.00
5574;BME280;2563;52.242;7.956;2023-04-27T00:31:41;101216.41;;;2.96;100.00
5574;BME280;2563;52.242;7.956;2023-04-27T00:34:06;101206.28;;;2.99;100.00
5574;BME280;2563;52.242;7.956;2023-04-27T00:36:33;101201.91;;;2.92;100.00
5574;BME280;2563;52.242;7.956;2023-04-27T00:38:59;101189.13;;;2.86;100.00
5574;BME280;2563;52.242;7.956;2023-04-27T00:41:24;101189.78;;;2.77;100.00
5574;BME280;2563;52.242;7.956;2023-04-27T00:43:50;101181.19;;;2.70;100.00
5574;BME280;2563;52.242;7.956;2023-04-27T00:46:15;101183.66;;;2.64;100.00
5574;BME280;2563;52.242;7.956;2023-04-27T00:48:41;101181.88;;;2.60;100.00
5574;BME280;2563;52.242;7.956;2023-04-27T00:51:07;101174.19;;;2.57;100.00
5574;BME280;2563;52.242;7.956;2023-04-27T00:53:33;101163.13;;;2.55;100.00
5574;BME280;2563;52.242;7.956;2023-04-27T00:56:00;101153.72;;;2.49;100.00
5574;BME280;2563;52.242;7.956;2023-04-27T00:58:25;101156.06;;;2.39;100.00
5574;BME280;2563;52.242;7.956;2023-04-27T01:00:51;101150.91;;;2.36;100.00
5574;BME280;2563;52.242;7.956;2023-04-27T01:03:16;101144.06;;;2.30;100.00
5574;BME280;2563;52.242;7.956;2023-04-27T01:05:42;101132.91;;;2.23;100.00
5574;BME280;2563;52.242;7.956;2023-04-27T01:08:07;101126.09;;;2.21;100.00
5574;BME280;2563;52.242;7.956;2023-04-27T01:10:33;101112.41;;;2.14;100.00
5574;BME280;2563;52.242;7.956;2023-04-27T01:12:59;101104.66;;;2.08;100.00
5574;BME280;2563;52.242;7.956;2023-04-27T01:15:24;101097.75;;;2.01;100.00
5574;BME280;2563;52.242;7.956;2023-04-27T01:17:56;101093.38;;;1.92;100.00
5574;BME280;2563;52.242;7.956;2023-04-27T01:20:22;101088.19;;;1.87;100.00
5574;BME280;2563;52.242;7.956;2023-04-27T01:22:47;101085.66;;;1.87;100.00
5574;BME280;2563;52.242;7.956;2023-04-27T01:25:13;101076.25;;;1.83;100.00
5574;BME280;2563;52.242;7.956;2023-04-27T01:27:38;101074.47;;;1.79;100.00
5574;BME280;2563;52.242;7.956;2023-04-27T01:30:04;101069.41;;;1.78;100.00
5574;BME280;2563;52.242;7.956;2023-04-27T01:32:30;101051.50;;;1.70;100.00
5574;BME280;2563;52.242;7.956;2023-04-27T01:34:55;101042.84;;;1.62;100.00
5574;BME280;2563;52.242;7.956;2023-04-27T01:37:21;101041.94;;;1.58;100.00
5574;BME280;2563;52.242;7.956;2023-04-27T01:39:46;101030.19;;;1.63;100.00
5574;BME280;2563;52.242;7.956;2023-04-27T01:42:11;101024.16;;;1.57;100.00
5574;BME280;2563;52.242;7.956;2023-04-27T01:44:37;101024.09;;;1.54;100.00
5574;BME280;2563;52.242;7.956;2023-04-27T01:47:02;101017.19;;;1.46;100.00
5574;BME280;2563;52.242;7.956;2023-04-27T01:49:28;101011.16;;;1.43;100.00
5574;BME280;2563;52.242;7.956;2023-04-27T01:51:53;101010.19;;;1.36;100.00
5574;BME280;2563;52.242;7.956;2023-04-27T01:54:18;100999.94;;;1.30;100.00
5574;BME280;2563;52.242;7.956;2023-04-27T01:56:44;100994.84;;;1.30;100.00
5574;BME280;2563;52.242;7.956;2023-04-27T01:59:09;100991.44;;;1.28;100.00
5574;BME280;2563;52.242;7.956;2023-04-27T02:01:35;100984.53;;;1.21;100.00
5574;BME280;2563;52.242;7.956;2023-04-27T02:04:00;100975.97;;;1.16;100.00
5574;BME280;2563;52.242;7.956;2023-04-27T02:06:25;100969.16;;;1.15;100.00
5574;BME280;2563;52.242;7.956;2023-04-27T02:08:51;100969.25;;;1.18;100.00
5574;BME280;2563;52.242;7.956;2023-04-27T02:11:17;100971.69;;;1.13;100.00
5574;BME280;2563;52.242;7.956;2023-04-27T02:13:42;100967.31;;;1.08;100.00
5574;BME280;2563;52.242;7.956;2023-04-27T02:16:07;100963.03;;;1.05;100.00
5574;BME280;2563;52.242;7.956;2023-04-27T02:18:33;100949.47;;;1.01;100.00
5574;BME280;2563;52.242;7.956;2023-04-27T02:21:00;100951.06;;;0.98;100.00
5574;BME280;2563;52.242;7.956;2023-04-27T02:23:25;100942.63;;;0.97;100.00
5574;BME280;2563;52.242;7.956;2023-04-27T02:25:51;100937.38;;;0.90;100.00
5574;BME280;2563;52.242;7.956;2023-04-27T02:28:16;100925.50;;;0.87;100.00
5574;BME280;2563;52.242;7.956;2023-04-27T02:30:41;100926.25;;;0.83;100.00
5574;BME280;2563;52.242;7.956;2023-04-27T02:33:07;100911.81;;;0.79;100.00
5574;BME280;2563;52.242;7.956;2023-04-27T02:35:32;100910.09;;;0.78;100.00
5574;BME280;2563;52.242;7.956;2023-04-27T02:37:58;100910.78;;;0.71;100.00
5574;BME280;2563;52.242;7.956;2023-04-27T02:40:23;100903.94;;;0.67;100.00
5574;BME280;2563;52.242;7.956;2023-04-27T02:42:49;100899.72;;;0.66;100.00
5574;BME280;2563;52.242;7.956;2023-04-27T02:45:15;100892.97;;;0.66;100.00
5574;BME280;2563;52.242;7.956;2023-04-27T02:47:40;100890.38;;;0.64;100.00
5574;BME280;2563;52.242;7.956;2023-04-27T02:50:06;100859.09;;;0.61;100.00
5574;BME280;2563;52.242;7.956;2023-04-27T02:52:32;100855.63;;;0.57;100.00
5574;BME280;2563;52.242;7.956;2023-04-27T02:54:57;100851.34;;;0.55;100.00
5574;BME280;2563;52.242;7.956;2023-04-27T02:57:22;100842.78;;;0.48;100.00
5574;BME280;2563;52.242;7.956;2023-04-27T02:59:48;100849.47;;;0.46;100.00
5574;BME280;2563;52.242;7.956;2023-04-27T03:02:13;100834.13;;;0.40;100.00
5574;BME280;2563;52.242;7.956;2023-04-27T03:04:38;100834.03;;;0.34;100.00
5574;BME280;2563;52.242;7.956;2023-04-27T03:07:04;100824.69;;;0.31;100.00
5574;BME280;2563;52.242;7.956;2023-04-27T03:09:30;100815.31;;;0.29;100.00
5574;BME280;2563;52.242;7.956;2023-04-27T03:11:55;100812.78;;;0.27;100.00
5574;BME280;2563;52.242;7.956;2023-04-27T03:14:21;100800.97;;;0.28;100.00
5574;BME280;2563;52.242;7.956;2023-04-27T03:16:47;100796.44;;;0.14;100.00
5574;BME280;2563;52.242;7.956;2023-04-27T03:19:12;100793.84;;;0.10;100.00
5574;BME280;2563;52.242;7.956;2023-04-27T03:21:38;100777.72;;;0.06;100.00
5574;BME280;2563;52.242;7.956;2023-04-27T03:24:04;100771.72;;;0.01;100.00
5574;BME280;2563;52.242;7.956;2023-04-27T03:26:29;100776.03;;;0.05;100.00
5574;BME280;2563;52.242;7.956;2023-04-27T03:28:55;100767.59;;;0.06;100.00
5574;BME280;2563;52.242;7.956;2023-04-27T03:31:20;100766.75;;;0.06;100.00
5574;BME280;2563;52.242;7.956;2023-04-27T03:33:45;100761.63;;;0.03;100.00
5574;BME280;2563;52.242;7.956;2023-04-27T03:36:11;100761.59;;;0.01;100.00
5574;BME280;2563;52.242;7.956;2023-04-27T03:38:37;100750.56;;;-0.01;100.00
5574;BME280;2563;52.242;7.956;2023-04-27T03:41:02;100748.66;;;-0.11;100.00
5574;BME280;2563;52.242;7.956;2023-04-27T03:43:28;100747.88;;;-0.09;100.00
5574;BME280;2563;52.242;7.956;2023-04-27T03:45:54;100732.53;;;-0.15;100.00
5574;BME280;2563;52.242;7.956;2023-04-27T03:48:19;100743.53;;;-0.14;100.00
5574;BME280;2563;52.242;7.956;2023-04-27T03:50:45;100740.13;;;-0.16;100.00
5574;BME280;2563;52.242;7.956;2023-04-27T03:53:11;100729.06;;;-0.20;100.00
5574;BME280;2563;52.242;7.956;2023-04-27T03:55:38;100729.78;;;-0.26;100.00
5574;BME280;2563;52.242;7.956;2023-04-27T03:58:04;100736.63;;;-0.22;100.00
5574;BME280;2563;52.242;7.956;2023-04-27T04:00:29;100717.94;;;-0.27;100.00
5574;BME280;2563;52.242;7.956;2023-04-27T04:02:55;100715.31;;;-0.33;100.00
5574;BME280;2563;52.242;7.956;2023-04-27T04:05:21;100716.03;;;-0.37;100.00
5574;BME280;2563;52.242;7.956;2023-04-27T04:07:46;100710.19;;;-0.36;100.00
5574;BME280;2563;52.242;7.956;2023-04-27T04:10:11;100717.75;;;-0.36;100.00
5574;BME280;2563;52.242;7.956;2023-04-27T04:12:37;100710.19;;;-0.34;100.00
5574;BME280;2563;52.242;7.956;2023-04-27T04:15:03;100704.34;;;-0.32;100.00
5574;BME280;2563;52.242;7.956;2023-04-27T04:17:28;100712.88;;;-0.27;100.00
5574;BME280;2563;52.242;7.956;2023-04-27T04:19:54;100697.66;;;-0.30;100.00
5574;BME280;2563;52.242;7.956;2023-04-27T04:22:19;100697.69;;;-0.28;100.00
5574;BME280;2563;52.242;7.956;2023-04-27T04:24:45;100699.50;;;-0.23;100.00
5574;BME280;2563;52.242;7.956;2023-04-27T04:27:11;100695.38;;;-0.19;100.00
5574;BME280;2563;52.242;7.956;2023-04-27T04:29:36;100694.50;;;-0.21;100.00
5574;BME280;2563;52.242;7.956;2023-04-27T04:32:03;100682.75;;;-0.17;100.00
5574;BME280;2563;52.242;7.956;2023-04-27T04:34:29;100688.78;;;-0.11;100.00
5574;BME280;2563;52.242;7.956;2023-04-27T04:36:54;100686.47;;;-0.02;100.00
5574;BME280;2563;52.242;7.956;2023-04-27T04:39:22;100690.84;;;0.07;100.00
5574;BME280;2563;52.242;7.956;2023-04-27T04:41:48;100680.13;;;0.19;100.00
5574;BME280;2563;52.242;7.956;2023-04-27T04:44:17;100672.56;;;0.20;100.00
5574;BME280;2563;52.242;7.956;2023-04-27T04:46:43;100653.06;;;0.15;100.00
5574;BME280;2563;52.242;7.956;2023-04-27T04:49:09;100651.34;;;0.14;100.00
5574;BME280;2563;52.242;7.956;2023-04-27T04:51:34;100656.50;;;0.18;100.00
5574;BME280;2563;52.242;7.956;2023-04-27T04:53:59;100655.78;;;0.26;100.00
5574;BME280;2563;52.242;7.956;2023-04-27T04:56:25;100650.78;;;0.29;100.00
5574;BME280;2563;52.242;7.956;2023-04-27T04:58:51;100655.22;;;0.39;100.00
5574;BME280;2563;52.242;7.956;2023-04-27T05:01:16;100637.59;;;0.45;100.00
5574;BME280;2563;52.242;7.956;2023-04-27T05:03:41;100636.16;;;0.59;100.00
5574;BME280;2563;52.242;7.956;2023-04-27T05:06:07;100627.13;;;0.74;100.00
5574;BME280;2563;52.242;7.956;2023-04-27T05:08:32;100627.56;;;0.98;100.00
5574;BME280;2563;52.242;7.956;2023-04-27T05:10:58;100615.47;;;1.37;100.00
5574;BME280;2563;52.242;7.956;2023-04-27T05:13:23;100587.84;;;1.60;100.00
5574;BME280;2563;52.242;7.956;2023-04-27T05:15:49;100573.22;;;2.09;100.00
5574;BME280;2563;52.242;7.956;2023-04-27T05:18:15;100555.09;;;2.62;100.00
5574;BME280;2563;52.242;7.956;2023-04-27T05:20:40;100527.41;;;3.01;100.00
5574;BME280;2563;52.242;7.956;2023-04-27T05:23:06;100499.63;;;3.39;100.00
5574;BME280;2563;52.242;7.956;2023-04-27T05:25:32;100492.13;;;3.77;100.00
5574;BME280;2563;52.242;7.956;2023-04-27T05:27:58;100485.41;;;4.15;100.00
5574;BME280;2563;52.242;7.956;2023-04-27T05:30:23;100462.47;;;4.52;100.00
5574;BME280;2563;52.242;7.956;2023-04-27T05:32:49;100465.03;;;4.48;100.00
5574;BME280;2563;52.242;7.956;2023-04-27T05:35:15;100481.16;;;4.81;100.00
5574;BME280;2563;52.242;7.956;2023-04-27T05:37:40;100465.81;;;4.97;100.00
5574;BME280;2563;52.242;7.956;2023-04-27T05:40:06;100467.41;;;5.25;100.00
5574;BME280;2563;52.242;7.956;2023-04-27T05:42:35;100468.16;;;5.52;100.00
5574;BME280;2563;52.242;7.956;2023-04-27T05:45:00;100467.91;;;6.00;100.00
5574;BME280;2563;52.242;7.956;2023-04-27T05:47:26;100466.13;;;6.08;100.00
5574;BME280;2563;52.242;7.956;2023-04-27T05:49:52;100489.00;;;6.25;100.00
5574;BME280;2563;52.242;7.956;2023-04-27T05:52:18;100487.13;;;6.48;100.00
5574;BME280;2563;52.242;7.956;2023-04-27T05:54:47;100479.28;;;6.70;100.00
5574;BME280;2563;52.242;7.956;2023-04-27T05:57:13;100495.28;;;6.90;100.00
5574;BME280;2563;52.242;7.956;2023-04-27T05:59:40;100483.34;;;6.89;100.00
5574;BME280;2563;52.242;7.956;2023-04-27T06:02:05;100519.63;;;7.25;100.00
5574;BME280;2563;52.242;7.956;2023-04-27T06:04:31;100519.34;;;7.53;100.00
5574;BME280;2563;52.242;7.956;2023-04-27T06:07:01;100536.13;;;7.75;100.00
5574;BME280;2563;52.242;7.956;2023-04-27T06:09:29;100551.31;;;7.91;100.00
5574;BME280;2563;52.242;7.956;2023-04-27T06:11:55;100559.44;;;8.22;100.00
5574;BME280;2563;52.242;7.956;2023-04-27T06:14:22;100566.94;;;8.32;100.00
5574;BME280;2563;52.242;7.956;2023-04-27T06:16:48;100547.44;;;8.24;100.00
5574;BME280;2563;52.242;7.956;2023-04-27T06:19:13;100592.78;;;8.19;100.00
5574;BME280;2563;52.242;7.956;2023-04-27T06:21:38;100640.38;;;8.41;100.00
5574;BME280;2563;52.242;7.956;2023-04-27T06:24:04;100668.25;;;8.66;100.00
5574;BME280;2563;52.242;7.956;2023-04-27T06:26:29;100697.84;;;8.90;100.00
5574;BME280;2563;52.242;7.956;2023-04-27T06:28:55;100735.00;;;9.22;100.00
5574;BME280;2563;52.242;7.956;2023-04-27T06:31:20;100714.59;;;9.14;100.00
5574;BME280;2563;52.242;7.956;2023-04-27T06:33:46;100803.31;;;9.35;100.00
5574;BME280;2563;52.242;7.956;2023-04-27T06:36:11;100824.50;;;10.00;100.00
5574;BME280;2563;52.242;7.956;2023-04-27T06:38:37;100832.75;;;10.19;100.00
5574;BME280;2563;52.242;7.956;2023-04-27T06:41:02;100878.78;;;10.38;100.00
5574;BME280;2563;52.242;7.956;2023-04-27T06:43:28;100941.34;;;10.41;100.00
5574;BME280;2563;52.242;7.956;2023-04-27T06:45:54;100949.41;;;10.17;100.00
5574;BME280;2563;52.242;7.956;2023-04-27T06:48:20;101010.16;;;10.29;100.00
5574;BME280;2563;52.242;7.956;2023-04-27T06:50:45;100991.66;;;10.04;100.00
5574;BME280;2563;52.242;7.956;2023-04-27T06:53:11;101078.09;;;10.12;100.00
5574;BME280;2563;52.242;7.956;2023-04-27T06:55:37;101117.41;;;10.22;100.00
5574;BME280;2563;52.242;7.956;2023-04-27T06:58:02;101183.41;;;10.90;100.00
5574;BME280;2563;52.242;7.956;2023-04-27T07:00:28;101153.84;;;11.12;100.00
5574;BME280;2563;52.242;7.956;2023-04-27T07:02:53;101146.81;;;10.68;100.00
5574;BME280;2563;52.242;7.956;2023-04-27T07:05:19;101179.19;;;10.84;100.00
5574;BME280;2563;52.242;7.956;2023-04-27T07:07:44;101271.97;;;11.37;100.00
5574;BME280;2563;52.242;7.956;2023-04-27T07:10:10;101206.63;;;11.41;100.00
5574;BME280;2563;52.242;7.956;2023-04-27T07:12:36;101204.88;;;11.43;100.00
5574;BME280;2563;52.242;7.956;2023-04-27T07:15:03;101241.50;;;11.62;100.00
5574;BME280;2563;52.242;7.956;2023-04-27T07:17:30;101221.72;;;11.62;100.00
5574;BME280;2563;52.242;7.956;2023-04-27T07:19:56;101273.25;;;12.13;100.00
5574;BME280;2563;52.242;7.956;2023-04-27T07:22:21;101233.22;;;11.94;100.00
5574;BME280;2563;52.242;7.956;2023-04-27T07:24:47;101193.59;;;11.50;100.00
5574;BME280;2563;52.242;7.956;2023-04-27T07:27:12;101263.81;;;11.10;100.00
5574;BME280;2563;52.242;7.956;2023-04-27T07:29:39;101289.94;;;11.43;100.00
5574;BME280;2563;52.242;7.956;2023-04-27T07:32:08;101262.91;;;11.65;100.00
5574;BME280;2563;52.242;7.956;2023-04-27T07:34:33;101254.66;;;11.96;100.00
5574;BME280;2563;52.242;7.956;2023-04-27T07:36:59;101271.66;;;12.51;100.00
5574;BME280;2563;52.242;7.956;2023-04-27T07:39:26;101270.59;;;13.01;100.00
5574;BME280;2563;52.242;7.956;2023-04-27T07:41:52;101202.25;;;12.76;100.00
5574;BME280;2563;52.242;7.956;2023-04-27T07:44:18;101236.38;;;12.91;100.00
5574;BME280;2563;52.242;7.956;2023-04-27T07:46:44;101225.03;;;12.96;100.00
5574;BME280;2563;52.242;7.956;2023-04-27T07:49:11;101213.94;;;13.63;100.00
5574;BME280;2563;52.242;7.956;2023-04-27T07:51:37;101196.09;;;13.52;100.00
5574;BME280;2563;52.242;7.956;2023-04-27T07:54:04;101171.50;;;13.37;100.00
5574;BME280;2563;52.242;7.956;2023-04-27T07:56:29;101138.78;;;13.36;100.00
5574;BME280;2563;52.242;7.956;2023-04-27T07:58:54;101184.91;;;13.53;100.00
5574;BME280;2563;52.242;7.956;2023-04-27T08:01:20;101163.03;;;13.65;100.00
5574;BME280;2563;52.242;7.956;2023-04-27T08:03:46;101143.63;;;13.49;100.00
5574;BME280;2563;52.242;7.956;2023-04-27T08:06:11;101190.81;;;13.90;100.00
5574;BME280;2563;52.242;7.956;2023-04-27T08:08:36;101150.81;;;13.37;100.00
5574;BME280;2563;52.242;7.956;2023-04-27T08:11:02;101190.47;;;14.02;100.00
5574;BME280;2563;52.242;7.956;2023-04-27T08:13:27;101157.03;;;13.63;100.00
5574;BME280;2563;52.242;7.956;2023-04-27T08:15:53;101162.38;;;13.88;100.00
5574;BME280;2563;52.242;7.956;2023-04-27T08:18:23;101183.66;;;14.59;100.00
5574;BME280;2563;52.242;7.956;2023-04-27T08:20:48;101169.09;;;14.83;100.00
5574;BME280;2563;52.242;7.956;2023-04-27T08:23:14;101158.44;;;14.64;100.00
5574;BME280;2563;52.242;7.956;2023-04-27T08:25:40;101153.06;;;14.42;100.00
5574;BME280;2563;52.242;7.956;2023-04-27T08:28:05;101167.41;;;14.52;100.00
5574;BME280;2563;52.242;7.956;2023-04-27T08:30:31;101147.22;;;14.35;100.00
5574;BME280;2563;52.242;7.956;2023-04-27T08:32:56;101176.03;;;13.62;100.00
5574;BME280;2563;52.242;7.956;2023-04-27T08:35:22;101211.38;;;13.96;100.00
5574;BME280;2563;52.242;7.956;2023-04-27T08:37:47;101208.88;;;15.08;100.00
5574;BME280;2563;52.242;7.956;2023-04-27T08:40:13;101188.59;;;14.95;100.00
5574;BME280;2563;52.242;7.956;2023-04-27T08:42:41;101207.69;;;15.19;100.00
5574;BME280;2563;52.242;7.956;2023-04-27T08:45:17;101205.00;;;15.20;100.00
5574;BME280;2563;52.242;7.956;2023-04-27T08:47:43;101219.44;;;15.29;100.00
5574;BME280;2563;52.242;7.956;2023-04-27T08:50:09;101224.03;;;15.72;100.00
5574;BME280;2563;52.242;7.956;2023-04-27T08:52:36;101232.34;;;16.07;100.00
5574;BME280;2563;52.242;7.956;2023-04-27T08:55:01;101224.97;;;16.42;100.00
5574;BME280;2563;52.242;7.956;2023-04-27T08:57:28;101252.38;;;16.27;100.00
5574;BME280;2563;52.242;7.956;2023-04-27T08:59:57;101233.16;;;15.84;100.00
5574;BME280;2563;52.242;7.956;2023-04-27T09:02:28;101225.41;;;14.78;100.00
5574;BME280;2563;52.242;7.956;2023-04-27T09:04:54;101267.88;;;14.72;100.00
5574;BME280;2563;52.242;7.956;2023-04-27T09:07:20;101269.69;;;15.25;100.00
5574;BME280;2563;52.242;7.956;2023-04-27T09:09:46;101257.06;;;16.17;100.00
5574;BME280;2563;52.242;7.956;2023-04-27T09:12:21;101270.91;;;16.42;100.00
5574;BME280;2563;52.242;7.956;2023-04-27T09:17:28;101272.34;;;16.96;100.00
5574;BME280;2563;52.242;7.956;2023-04-27T09:20:08;101277.97;;;16.85;100.00
5574;BME280;2563;52.242;7.956;2023-04-27T09:22:45;101289.56;;;16.76;100.00
5574;BME280;2563;52.242;7.956;2023-04-27T09:25:31;101291.41;;;16.49;100.00
5574;BME280;2563;52.242;7.956;2023-04-27T09:27:58;101290.00;;;16.88;100.00
5574;BME280;2563;52.242;7.956;2023-04-27T09:30:28;101307.75;;;17.00;100.00
5574;BME280;2563;52.242;7.956;2023-04-27T09:33:00;101294.25;;;15.68;100.00
5574;BME280;2563;52.242;7.956;2023-04-27T09:35:30;101307.34;;;15.10;100.00
5574;BME280;2563;52.242;7.956;2023-04-27T09:37:56;101306.94;;;15.24;100.00
5574;BME280;2563;52.242;7.956;2023-04-27T09:40:24;101311.81;;;13.81;100.00
5574;BME280;2563;52.242;7.956;2023-04-27T09:42:55;101322.28;;;14.41;100.00
5574;BME280;2563;52.242;7.956;2023-04-27T09:45:22;101321.34;;;14.12;100.00
5574;BME280;2563;52.242;7.956;2023-04-27T09:47:48;101321.38;;;13.78;100.00
5574;BME280;2563;52.242;7.956;2023-04-27T09:50:14;101341.31;;;15.30;100.00
5574;BME280;2563;52.242;7.956;2023-04-27T09:52:39;101342.16;;;16.11;100.00
5574;BME280;2563;52.242;7.956;2023-04-27T09:55:08;101341.16;;;16.40;100.00
5574;BME280;2563;52.242;7.956;2023-04-27T09:57:42;101334.91;;;16.93;100.00
5574;BME280;2563;52.242;7.956;2023-04-27T10:00:19;101340.78;;;16.98;100.00
5574;BME280;2563;52.242;7.956;2023-04-27T10:08:35;101311.19;;;16.78;96.50
5574;BME280;2563;52.242;7.956;2023-04-27T10:11:12;101310.53;;;17.17;90.80
5574;BME280;2563;52.242;7.956;2023-04-27T10:13:37;101281.19;;;16.92;83.42
5574;BME280;2563;52.242;7.956;2023-04-27T10:16:15;101262.69;;;17.21;79.27
5574;BME280;2563;52.242;7.956;2023-04-27T10:18:50;101249.38;;;17.07;75.55
5574;BME280;2563;52.242;7.956;2023-04-27T10:21:17;101246.94;;;17.25;74.25
5574;BME280;2563;52.242;7.956;2023-04-27T10:23:50;101242.97;;;17.57;73.75
5574;BME280;2563;52.242;7.956;2023-04-27T10:26:21;101230.63;;;18.22;72.01
5574;BME280;2563;52.242;7.956;2023-04-27T10:29:13;101200.28;;;17.40;69.32
5574;BME280;2563;52.242;7.956;2023-04-27T10:31:44;101213.59;;;16.68;70.09
5574;BME280;2563;52.242;7.956;2023-04-27T10:34:15;101243.44;;;17.67;70.88
5574;BME280;2563;52.242;7.956;2023-04-27T10:36:41;101179.38;;;17.01;67.43
5574;BME280;2563;52.242;7.956;2023-04-27T10:39:36;101196.47;;;16.41;67.64
5574;BME280;2563;52.242;7.956;2023-04-27T10:42:03;101196.84;;;17.60;66.92
5574;BME280;2563;52.242;7.956;2023-04-27T10:44:30;101155.59;;;17.10;64.98
5574;BME280;2563;52.242;7.956;2023-04-27T10:46:58;101158.03;;;16.49;65.23
5574;BME280;2563;52.242;7.956;2023-04-27T10:49:28;101152.34;;;16.17;64.39
5574;BME280;2563;52.242;7.956;2023-04-27T10:51:56;101173.25;;;16.82;65.41
5574;BME280;2563;52.242;7.956;2023-04-27T10:54:30;101184.03;;;16.49;66.49
5574;BME280;2563;52.242;7.956;2023-04-27T10:57:06;101204.50;;;17.63;67.41
5574;BME280;2563;52.242;7.956;2023-04-27T10:59:33;101213.31;;;17.61;68.38
5574;BME280;2563;52.242;7.956;2023-04-27T11:01:59;101136.25;;;16.07;64.82
5574;BME280;2563;52.242;7.956;2023-04-27T11:04:34;101169.56;;;16.42;66.21
5574;BME280;2563;52.242;7.956;2023-04-27T11:07:00;101148.13;;;16.80;64.90
5574;BME280;2563;52.242;7.956;2023-04-27T11:09:29;101168.13;;;16.11;66.07
5574;BME280;2563;52.242;7.956;2023-04-27T11:11:54;101130.16;;;16.30;64.26
5574;BME280;2563;52.242;7.956;2023-04-27T11:14:20;101154.84;;;16.86;65.64
5574;BME280;2563;52.242;7.956;2023-04-27T11:16:48;101207.25;;;17.60;68.18
5574;BME280;2563;52.242;7.956;2023-04-27T11:19:14;101162.84;;;17.02;66.42
5574;BME280;2563;52.242;7.956;2023-04-27T11:21:39;101169.53;;;16.87;66.40
5574;BME280;2563;52.242;7.956;2023-04-27T11:24:06;101163.88;;;17.20;66.57
5574;BME280;2563;52.242;7.956;2023-04-27T11:26:32;101140.38;;;17.01;64.40
5574;BME280;2563;52.242;7.956;2023-04-27T11:28:58;101139.00;;;17.13;64.21
5574;BME280;2563;52.242;7.956;2023-04-27T11:31:27;101182.09;;;17.80;65.94
5574;BME280;2563;52.242;7.956;2023-04-27T11:34:02;101144.13;;;18.14;63.92
5574;BME280;2563;52.242;7.956;2023-04-27T11:36:27;101155.97;;;18.02;63.60
5574;BME280;2563;52.242;7.956;2023-04-27T11:38:56;101125.38;;;17.68;62.56
5574;BME280;2563;52.242;7.956;2023-04-27T11:41:32;101147.22;;;18.22;62.72
5574;BME280;2563;52.242;7.956;2023-04-27T11:44:06;101160.44;;;18.55;63.52
5574;BME280;2563;52.242;7.956;2023-04-27T11:46:32;101135.78;;;18.43;62.00
5574;BME280;2563;52.242;7.956;2023-04-27T11:49:02;101162.31;;;18.70;63.12
5574;BME280;2563;52.242;7.956;2023-04-27T11:51:28;101224.47;;;19.16;66.83
5574;BME280;2563;52.242;7.956;2023-04-27T11:53:54;101217.84;;;19.44;66.74
5574;BME280;2563;52.242;7.956;2023-04-27T11:56:20;101197.84;;;19.44;65.47
5574;BME280;2563;52.242;7.956;2023-04-27T11:58:46;101125.22;;;18.46;61.49
5574;BME280;2563;52.242;7.956;2023-04-27T12:01:11;101181.88;;;19.16;64.35
5574;BME280;2563;52.242;7.956;2023-04-27T12:03:37;101195.13;;;19.81;64.75
5574;BME280;2563;52.242;7.956;2023-04-27T12:06:02;101191.97;;;20.71;63.72
5574;BME280;2563;52.242;7.956;2023-04-27T12:08:28;101184.81;;;20.58;62.87
5574;BME280;2563;52.242;7.956;2023-04-27T12:10:54;101129.34;;;19.72;60.50
5574;BME280;2563;52.242;7.956;2023-04-27T12:13:20;101120.19;;;19.48;59.44
5574;BME280;2563;52.242;7.956;2023-04-27T12:15:45;101138.38;;;18.99;61.43
5574;BME280;2563;52.242;7.956;2023-04-27T12:18:11;101095.09;;;18.22;59.45
5574;BME280;2563;52.242;7.956;2023-04-27T12:20:36;101119.22;;;18.27;60.14
5574;BME280;2563;52.242;7.956;2023-04-27T12:23:02;101104.97;;;17.77;60.22
5574;BME280;2563;52.242;7.956;2023-04-27T12:25:28;101127.94;;;18.26;60.69
5574;BME280;2563;52.242;7.956;2023-04-27T12:27:54;101105.44;;;18.79;58.91
5574;BME280;2563;52.242;7.956;2023-04-27T12:30:21;101088.59;;;17.94;59.15
5574;BME280;2563;52.242;7.956;2023-04-27T12:32:47;101092.03;;;18.14;59.01
5574;BME280;2563;52.242;7.956;2023-04-27T12:35:12;101136.50;;;19.01;59.73
5574;BME280;2563;52.242;7.956;2023-04-27T12:37:38;101093.19;;;18.62;57.78
5574;BME280;2563;52.242;7.956;2023-04-27T12:40:04;101105.97;;;19.03;58.57
5574;BME280;2563;52.242;7.956;2023-04-27T12:42:33;101035.41;;;17.22;56.62
5574;BME280;2563;52.242;7.956;2023-04-27T12:44:59;101039.34;;;15.36;58.11
5574;BME280;2563;52.242;7.956;2023-04-27T12:47:24;101059.66;;;15.48;58.55
5574;BME280;2563;52.242;7.956;2023-04-27T12:49:50;101073.19;;;15.33;60.28
5574;BME280;2563;52.242;7.956;2023-04-27T12:52:16;101057.59;;;14.84;59.09
5574;BME280;2563;52.242;7.956;2023-04-27T12:54:41;101109.09;;;15.44;61.43
5574;BME280;2563;52.242;7.956;2023-04-27T12:57:07;101102.09;;;15.94;60.57
5574;BME280;2563;52.242;7.956;2023-04-27T12:59:33;101084.00;;;15.93;59.76
5574;BME280;2563;52.242;7.956;2023-04-27T13:02:02;101077.06;;;15.70;58.93
5574;BME280;2563;52.242;7.956;2023-04-27T13:04:29;101084.31;;;15.60;59.14
5574;BME280;2563;52.242;7.956;2023-04-27T13:06:56;101133.56;;;16.76;61.33
5574;BME280;2563;52.242;7.956;2023-04-27T13:09:25;101144.44;;;17.29;62.09
5574;BME280;2563;52.242;7.956;2023-04-27T13:11:51;101134.47;;;17.57;61.01